Time;durP1;ratioP1;P1;durP2;ratioP2;P2;SDS_P1;SDS_P2;PMS_P1;PMS_P2;Temp;Humidity;BMP_temperature;BMP_pressure;BME280_temperature;BME280_humidity;BME280_pressure;Samples;Min_cycle;Max_cycle;Signal;HPM_P1;HPM_P2
2023/10/23 00:00:28;;;;;;;4.35;0.70;;;;;;;12.40;100.00;98682.84;4469657;32;20557;-76
2023/10/23 00:02:56;;;;;;;0.90;0.47;;;;;;;12.38;100.00;98679.50;4469420;32;20120;-76
2023/10/23 00:05:24;;;;;;;2.45;0.50;;;;;;;12.24;100.00;98683.50;4469585;32;20164;-76
2023/10/23 00:07:52;;;;;;;1.30;0.50;;;;;;;12.24;100.00;98684.31;4469439;32;20133;-76
2023/10/23 00:10:20;;;;;;;0.82;0.55;;;;;;;12.18;100.00;98682.28;4469704;32;20089;-76
2023/10/23 00:12:48;;;;;;;0.98;0.50;;;;;;;12.14;100.00;98683.59;4469072;32;20085;-76
2023/10/23 00:15:15;;;;;;;2.00;0.73;;;;;;;12.12;100.00;98685.50;4469432;32;20442;-76
2023/10/23 00:17:43;;;;;;;0.55;0.40;;;;;;;12.03;100.00;98686.41;4484663;32;20119;-76
2023/10/23 00:20:11;;;;;;;1.23;0.70;;;;;;;11.97;100.00;98687.81;4484911;32;20494;-76
2023/10/23 00:22:39;;;;;;;2.85;0.60;;;;;;;11.98;100.00;98691.28;4484413;31;20108;-76
2023/10/23 00:25:07;;;;;;;1.17;0.60;;;;;;;11.81;100.00;98696.31;4485004;32;20386;-76
2023/10/23 00:27:35;;;;;;;0.80;0.50;;;;;;;11.67;100.00;98699.41;4481372;31;20132;-76
2023/10/23 00:30:03;;;;;;;0.80;0.30;;;;;;;11.57;100.00;98701.25;4469370;32;20093;-75
2023/10/23 00:32:31;;;;;;;0.80;0.40;;;;;;;11.48;100.00;98701.16;4469014;32;20096;-76
2023/10/23 00:34:59;;;;;;;0.47;0.40;;;;;;;11.46;100.00;98697.03;4469175;32;20100;-75
2023/10/23 00:37:26;;;;;;;0.52;0.43;;;;;;;11.38;100.00;98692.50;4469044;32;20105;-76
2023/10/23 00:39:54;;;;;;;1.23;0.60;;;;;;;11.34;100.00;98696.41;4469535;32;20092;-76
2023/10/23 00:42:22;;;;;;;1.45;0.40;;;;;;;11.29;100.00;98693.38;4468998;32;20085;-76
2023/10/23 00:44:49;;;;;;;1.42;0.37;;;;;;;11.33;100.00;98694.75;4469209;32;20175;-76
2023/10/23 00:47:21;;;;;;;1.00;0.50;;;;;;;11.30;100.00;98700.28;4469179;32;20089;-76
2023/10/23 00:49:48;;;;;;;1.25;0.45;;;;;;;11.30;100.00;98687.16;4469171;32;20202;-76
2023/10/23 00:52:16;;;;;;;1.92;0.50;;;;;;;11.22;100.00;98687.03;4467991;32;20170;-76
2023/10/23 00:54:45;;;;;;;0.95;0.40;;;;;;;11.05;100.00;98686.81;4469223;32;20118;-76
2023/10/23 00:57:13;;;;;;;0.60;0.60;;;;;;;10.98;100.00;98689.19;4467678;32;20092;-76
2023/10/23 00:59:41;;;;;;;1.77;0.55;;;;;;;11.01;100.00;98677.59;4467955;32;20109;-76
2023/10/23 01:02:09;;;;;;;1.15;0.50;;;;;;;11.06;100.00;98685.84;4468928;32;20344;-76
2023/10/23 01:04:38;;;;;;;1.25;0.68;;;;;;;11.07;100.00;98684.88;4469003;32;20568;-76
2023/10/23 01:07:06;;;;;;;2.20;0.40;;;;;;;11.09;100.00;98685.56;4468978;32;20101;-76
2023/10/23 01:09:33;;;;;;;1.65;0.65;;;;;;;11.13;100.00;98688.75;4468971;32;20210;-76
2023/10/23 01:12:01;;;;;;;0.40;0.30;;;;;;;11.20;100.00;98692.44;4468807;32;20093;-76
2023/10/23 01:14:29;;;;;;;0.75;0.43;;;;;;;11.17;100.00;98700.59;4469013;32;20097;-76
2023/10/23 01:16:57;;;;;;;1.17;0.50;;;;;;;11.13;100.00;98697.44;4479132;32;20130;-76
2023/10/23 01:19:24;;;;;;;10.60;0.85;;;;;;;11.12;100.00;98708.06;4484678;32;20130;-75
2023/10/23 01:21:52;;;;;;;1.67;0.73;;;;;;;10.97;100.00;98710.28;4484789;31;20100;-75
2023/10/23 01:24:21;;;;;;;0.55;0.45;;;;;;;10.90;100.00;98706.56;4484519;32;20389;-77
2023/10/23 01:26:49;;;;;;;1.30;0.70;;;;;;;10.84;100.00;98700.13;4484573;31;20103;-76
2023/10/23 01:29:17;;;;;;;1.58;0.45;;;;;;;10.85;100.00;98700.94;4469661;32;20172;-76
2023/10/23 01:31:45;;;;;;;1.87;0.50;;;;;;;10.82;100.00;98708.13;4468860;32;20093;-76
2023/10/23 01:34:13;;;;;;;0.50;0.50;;;;;;;10.77;100.00;98705.09;4467838;32;20236;-75
2023/10/23 01:36:40;;;;;;;0.82;0.32;;;;;;;10.77;100.00;98697.22;4468453;32;20164;-75
2023/10/23 01:39:08;;;;;;;2.25;0.70;;;;;;;10.79;100.00;98700.53;4468697;32;20097;-76
2023/10/23 01:41:36;;;;;;;0.80;0.50;;;;;;;10.77;100.00;98691.97;4468873;32;20162;-76
2023/10/23 01:44:04;;;;;;;0.60;0.40;;;;;;;10.71;100.00;98700.41;4468998;32;20100;-76
2023/10/23 01:46:32;;;;;;;1.48;0.70;;;;;;;10.69;100.00;98689.25;4468699;32;20620;-76
2023/10/23 01:49:00;;;;;;;1.67;0.50;;;;;;;10.72;100.00;98688.97;4468578;32;20152;-75
2023/10/23 01:51:28;;;;;;;1.67;0.70;;;;;;;10.63;100.00;98688.00;4468642;32;20161;-75
2023/10/23 01:53:56;;;;;;;1.35;0.65;;;;;;;10.63;100.00;98692.44;4468434;32;20111;-76
2023/10/23 01:56:25;;;;;;;1.58;0.62;;;;;;;10.59;100.00;98688.41;4468679;32;20144;-75
2023/10/23 01:58:52;;;;;;;0.62;0.40;;;;;;;10.55;100.00;98687.03;4468324;32;20122;-76
2023/10/23 02:01:22;;;;;;;1.35;0.55;;;;;;;10.55;100.00;98690.50;4468894;32;20093;-75
2023/10/23 02:03:50;;;;;;;1.05;0.60;;;;;;;10.52;100.00;98689.94;4468317;32;20119;-75
2023/10/23 02:06:18;;;;;;;1.30;0.60;;;;;;;10.44;100.00;98694.06;4468577;32;20104;-75
2023/10/23 02:08:46;;;;;;;2.53;0.70;;;;;;;10.41;100.00;98696.16;4468483;32;20084;-76
2023/10/23 02:11:14;;;;;;;1.95;0.50;;;;;;;10.42;100.00;98701.25;4468378;32;20150;-76
2023/10/23 02:13:42;;;;;;;1.98;0.68;;;;;;;10.33;100.00;98699.47;4468259;32;20085;-76
2023/10/23 02:16:09;;;;;;;0.50;0.50;;;;;;;10.38;100.00;98699.03;4473473;32;20159;-76
2023/10/23 02:18:37;;;;;;;0.88;0.50;;;;;;;10.43;100.00;98692.44;4483677;32;20135;-76
2023/10/23 02:21:05;;;;;;;1.27;0.75;;;;;;;10.51;100.00;98693.50;4483864;32;20461;-75
2023/10/23 02:23:34;;;;;;;1.20;0.70;;;;;;;10.57;100.00;98698.22;4483667;32;20116;-75
2023/10/23 02:26:21;;;;;;;1.75;0.70;;;;;;;10.62;100.00;98690.75;4483995;31;20084;-75
2023/10/23 02:28:50;;;;;;;1.02;0.52;;;;;;;10.68;100.00;98686.78;4471963;31;20100;-75
2023/10/23 02:31:18;;;;;;;0.57;0.45;;;;;;;10.73;100.00;98685.34;4468114;32;20104;-75
2023/10/23 02:33:46;;;;;;;2.50;0.60;;;;;;;10.78;100.00;98693.66;4467835;32;20092;-75
2023/10/23 02:36:15;;;;;;;1.60;0.77;;;;;;;10.75;100.00;98691.31;4467905;32;20480;-75
2023/10/23 02:38:43;;;;;;;1.85;0.88;;;;;;;10.77;100.00;98694.59;4467947;32;20135;-76
2023/10/23 02:41:11;;;;;;;1.83;0.90;;;;;;;10.79;100.00;98697.91;4468023;32;20488;-75
2023/10/23 02:43:39;;;;;;;2.60;1.20;;;;;;;10.81;100.00;98695.97;4467921;32;20150;-75
2023/10/23 02:46:06;;;;;;;3.20;1.50;;;;;;;10.83;100.00;98696.66;4468514;32;20089;-75
2023/10/23 02:48:34;;;;;;;5.05;0.80;;;;;;;10.83;100.00;98695.84;4469869;32;20119;-75
2023/10/23 02:51:02;;;;;;;0.77;0.60;;;;;;;10.81;100.00;98693.38;4470444;32;20574;-75
2023/10/23 02:53:30;;;;;;;1.27;0.75;;;;;;;10.70;100.00;98701.34;4469758;32;20088;-75
2023/10/23 02:55:58;;;;;;;1.65;0.88;;;;;;;10.66;100.00;98700.00;4470012;32;20450;-75
2023/10/23 02:58:25;;;;;;;0.70;0.70;;;;;;;10.71;100.00;98700.41;4470064;32;20153;-75
2023/10/23 03:00:53;;;;;;;0.62;0.50;;;;;;;10.75;100.00;98700.94;4470018;32;20123;-75
2023/10/23 03:03:21;;;;;;;0.98;0.70;;;;;;;10.76;100.00;98710.47;4470009;32;20096;-76
2023/10/23 03:05:49;;;;;;;2.62;0.80;;;;;;;10.72;100.00;98711.69;4469765;32;20153;-76
2023/10/23 03:08:17;;;;;;;1.90;0.90;;;;;;;10.63;100.00;98710.75;4469987;32;20184;-76
2023/10/23 03:10:44;;;;;;;1.25;0.75;;;;;;;10.63;100.00;98716.00;4470228;32;20092;-76
2023/10/23 03:13:12;;;;;;;2.50;0.80;;;;;;;10.64;100.00;98709.78;4469878;32;20080;-76
2023/10/23 03:15:40;;;;;;;0.98;0.52;;;;;;;10.63;100.00;98708.16;4471744;32;20161;-76
2023/10/23 03:18:08;;;;;;;1.08;0.60;;;;;;;10.70;100.00;98711.84;4485631;32;20084;-76
2023/10/23 03:20:36;;;;;;;1.25;0.62;;;;;;;10.63;100.00;98711.59;4485445;32;20115;-75
2023/10/23 03:23:04;;;;;;;2.62;0.75;;;;;;;10.63;100.00;98710.75;4485583;31;20125;-75
2023/10/23 03:25:32;;;;;;;0.57;0.50;;;;;;;10.65;100.00;98712.25;4485258;32;20111;-75
2023/10/23 03:28:00;;;;;;;1.00;0.60;;;;;;;10.61;100.00;98713.53;4479230;32;20489;-75
2023/10/23 03:30:27;;;;;;;2.53;0.73;;;;;;;10.68;100.00;98715.59;4469648;32;20101;-75
2023/10/23 03:32:55;;;;;;;1.20;0.77;;;;;;;10.72;100.00;98722.19;4469772;32;20496;-75
2023/10/23 03:35:24;;;;;;;1.55;0.60;;;;;;;10.77;100.00;98728.66;4469797;32;20088;-76
2023/10/23 03:37:52;;;;;;;4.75;0.80;;;;;;;10.82;100.00;98717.75;4469794;32;20158;-75
2023/10/23 03:40:20;;;;;;;2.25;0.70;;;;;;;10.83;100.00;98719.44;4469522;32;20124;-75
2023/10/23 03:42:51;;;;;;;0.82;0.60;;;;;;;10.89;100.00;98733.78;4469695;32;20084;-75
2023/10/23 03:45:19;;;;;;;2.25;0.60;;;;;;;10.92;100.00;98720.37;4469704;32;20111;-75
2023/10/23 03:47:47;;;;;;;0.60;0.57;;;;;;;10.93;100.00;98724.66;4469637;32;20119;-75
2023/10/23 03:50:15;;;;;;;1.12;0.60;;;;;;;10.93;100.00;98728.09;4469426;32;20096;-75
2023/10/23 03:52:43;;;;;;;0.80;0.57;;;;;;;10.92;100.00;98721.19;4469632;32;20176;-76
2023/10/23 03:55:11;;;;;;;2.70;0.55;;;;;;;10.90;100.00;98730.16;4469616;32;20084;-75
2023/10/23 03:57:41;;;;;;;3.15;0.95;;;;;;;10.87;100.00;98730.44;4468882;32;20084;-75
2023/10/23 04:00:10;;;;;;;1.37;0.50;;;;;;;10.87;100.00;98731.28;4469468;32;20453;-75
2023/10/23 04:02:40;;;;;;;1.50;0.50;;;;;;;10.89;100.00;98729.34;4469639;32;20096;-76
2023/10/23 04:05:08;;;;;;;1.17;0.60;;;;;;;10.81;100.00;98730.06;4469336;32;20477;-76
2023/10/23 04:07:35;;;;;;;1.15;0.57;;;;;;;10.82;100.00;98729.09;4469470;32;20240;-76
2023/10/23 04:10:07;;;;;;;1.25;0.57;;;;;;;10.79;100.00;98734.59;4469388;32;20483;-76
2023/10/23 04:12:34;;;;;;;1.77;0.55;;;;;;;10.71;100.00;98737.09;4469489;32;20153;-76
2023/10/23 04:15:03;;;;;;;1.05;0.75;;;;;;;10.71;100.00;98741.50;4469583;32;20133;-76
2023/10/23 04:17:31;;;;;;;3.70;1.08;;;;;;;10.79;100.00;98750.31;4483285;32;20156;-76
2023/10/23 04:19:59;;;;;;;1.25;0.73;;;;;;;10.74;100.00;98736.00;4484839;31;20092;-76
2023/10/23 04:22:26;;;;;;;2.55;0.77;;;;;;;10.73;100.00;98745.63;4485373;32;20084;-76
2023/10/23 04:24:54;;;;;;;1.12;0.73;;;;;;;10.75;100.00;98751.56;4485248;32;20088;-76
2023/10/23 04:27:23;;;;;;;1.30;0.85;;;;;;;10.78;100.00;98751.28;4482767;31;20173;-75
2023/10/23 04:29:50;;;;;;;1.87;0.82;;;;;;;10.76;100.00;98760.25;4469597;32;20154;-75
2023/10/23 04:32:18;;;;;;;2.75;0.70;;;;;;;10.74;100.00;98752.53;4469205;32;20959;-76
2023/10/23 04:34:46;;;;;;;1.77;0.60;;;;;;;10.67;100.00;98754.03;4469157;32;20100;-75
2023/10/23 04:37:13;;;;;;;1.42;0.57;;;;;;;10.67;100.00;98746.19;4469210;32;20101;-75
2023/10/23 04:39:43;;;;;;;3.62;0.75;;;;;;;10.70;100.00;98748.53;4469454;32;20167;-76
2023/10/23 04:42:11;;;;;;;1.50;0.55;;;;;;;10.73;100.00;98748.25;4469266;32;20118;-77
2023/10/23 04:44:39;;;;;;;1.48;0.70;;;;;;;10.74;100.00;98757.78;4467961;32;20096;-76
2023/10/23 04:47:06;;;;;;;0.98;0.60;;;;;;;10.73;100.00;98756.09;4469114;32;20132;-76
2023/10/23 04:49:34;;;;;;;1.80;0.70;;;;;;;10.76;100.00;98752.38;4469311;32;20104;-75
2023/10/23 04:52:02;;;;;;;2.22;0.60;;;;;;;10.80;100.00;98761.63;4469088;32;20114;-76
2023/10/23 04:54:30;;;;;;;1.15;0.70;;;;;;;10.80;100.00;98754.59;4469264;32;20117;-75
2023/10/23 04:56:58;;;;;;;2.20;0.70;;;;;;;10.83;100.00;98756.94;4468946;32;20123;-75
2023/10/23 04:59:26;;;;;;;2.25;0.60;;;;;;;10.88;100.00;98761.75;4469234;32;20105;-75
2023/10/23 05:01:53;;;;;;;3.25;0.50;;;;;;;10.87;100.00;98754.03;4469087;32;20483;-75
2023/10/23 05:04:22;;;;;;;2.90;0.60;;;;;;;10.81;100.00;98747.56;4469048;32;20112;-75
2023/10/23 05:06:49;;;;;;;1.27;0.60;;;;;;;10.79;100.00;98749.50;4469149;32;20108;-76
2023/10/23 05:09:17;;;;;;;2.42;0.75;;;;;;;10.77;100.00;98749.63;4468884;32;20593;-76
2023/10/23 05:11:45;;;;;;;0.40;0.40;;;;;;;10.92;100.00;98750.03;4468952;32;20149;-75
2023/10/23 05:14:12;;;;;;;1.30;0.50;;;;;;;11.00;100.00;98747.53;4469101;32;20115;-75
2023/10/23 05:16:39;;;;;;;3.53;0.68;;;;;;;10.98;100.00;98749.47;4477189;32;20651;-75
2023/10/23 05:19:08;;;;;;;0.60;0.60;;;;;;;10.94;100.00;98747.28;4484643;31;20093;-76
2023/10/23 05:21:37;;;;;;;0.80;0.60;;;;;;;11.03;100.00;98743.81;4484578;31;20092;-75
2023/10/23 05:24:05;;;;;;;1.35;0.68;;;;;;;11.10;100.00;98739.66;4484686;31;20152;-75
2023/10/23 05:26:33;;;;;;;0.82;0.50;;;;;;;11.14;100.00;98743.66;4484707;31;20123;-75
2023/10/23 05:29:01;;;;;;;4.32;2.67;;;;;;;11.06;100.00;98746.16;4471694;32;20168;-75
2023/10/23 05:31:28;;;;;;;8.15;3.28;;;;;;;10.96;100.00;98747.94;4468901;32;20126;-75
2023/10/23 05:33:56;;;;;;;5.70;3.97;;;;;;;10.94;100.00;98755.12;4458999;32;303413;-75
2023/10/23 05:36:24;;;;;;;4.97;3.30;;;;;;;11.16;100.00;98761.88;4468758;32;20443;-75
2023/10/23 05:38:52;;;;;;;6.80;2.80;;;;;;;11.28;100.00;98768.63;4469011;32;20096;-75
2023/10/23 05:41:20;;;;;;;2.53;1.60;;;;;;;11.42;100.00;98772.56;4468723;32;20626;-75
2023/10/23 05:43:47;;;;;;;1.40;0.90;;;;;;;11.54;100.00;98781.91;4468910;32;20141;-75
2023/10/23 05:46:15;;;;;;;0.82;0.70;;;;;;;11.67;100.00;98783.41;4468710;32;20514;-75
2023/10/23 05:48:43;;;;;;;1.33;0.73;;;;;;;11.86;100.00;98785.94;4468875;32;20512;-75
2023/10/23 05:51:12;;;;;;;3.58;0.93;;;;;;;11.92;100.00;98802.09;4468782;32;20092;-75
2023/10/23 05:53:40;;;;;;;1.83;0.75;;;;;;;12.01;100.00;98803.87;4468645;32;20084;-75
2023/10/23 05:56:08;;;;;;;0.50;0.50;;;;;;;12.13;100.00;98802.72;4468658;32;20136;-75
2023/10/23 05:58:36;;;;;;;3.90;0.65;;;;;;;12.13;100.00;98800.09;4468309;32;20484;-75
2023/10/23 06:01:07;;;;;;;4.10;0.90;;;;;;;12.24;100.00;98804.31;4468426;32;20152;-75
2023/10/23 06:03:36;;;;;;;2.70;0.98;;;;;;;12.30;100.00;98806.34;4468446;32;20101;-75
2023/10/23 06:06:04;;;;;;;1.33;0.70;;;;;;;12.37;100.00;98803.94;4468313;32;20167;-75
2023/10/23 06:08:32;;;;;;;1.87;0.70;;;;;;;12.43;100.00;98804.19;4468367;32;20089;-75
2023/10/23 06:11:00;;;;;;;1.42;0.57;;;;;;;12.52;100.00;98806.91;4468598;32;20149;-75
2023/10/23 06:13:28;;;;;;;1.30;0.62;;;;;;;12.53;100.00;98801.50;4468400;32;20162;-75
2023/10/23 06:16:04;;;;;;;2.67;0.55;;;;;;;12.55;100.00;98809.22;4471991;32;20096;-76
2023/10/23 06:18:37;;;;;;;3.30;1.10;;;;;;;12.51;100.00;98816.59;4483854;31;20097;-76
2023/10/23 06:21:06;;;;;;;1.62;0.75;;;;;;;12.50;100.00;98812.31;4484470;31;20133;-76
2023/10/23 06:23:36;;;;;;;2.33;0.80;;;;;;;12.72;100.00;98812.87;4485779;31;20123;-75
2023/10/23 06:26:05;;;;;;;1.58;1.15;;;;;;;12.94;100.00;98816.84;4486228;31;20145;-76
2023/10/23 06:28:33;;;;;;;2.33;1.42;;;;;;;13.11;100.00;98816.00;4475958;31;20165;-76
2023/10/23 06:31:09;;;;;;;1.87;1.30;;;;;;;13.27;100.00;98809.22;4470269;32;20093;-75
2023/10/23 06:33:42;;;;;;;1.45;1.10;;;;;;;13.51;100.00;98813.03;4470284;32;20076;-75
2023/10/23 06:36:10;;;;;;;1.95;1.08;;;;;;;13.62;100.00;98818.84;4470035;32;20097;-75
2023/10/23 06:38:38;;;;;;;2.70;1.42;;;;;;;13.72;100.00;98828.47;4470075;32;20084;-75
2023/10/23 06:41:07;;;;;;;3.35;0.80;;;;;;;13.82;100.00;98832.63;4470184;32;20089;-75
2023/10/23 06:43:38;;;;;;;2.03;0.80;;;;;;;14.02;100.00;98825.31;4470079;32;20461;-75
2023/10/23 06:46:06;;;;;;;1.60;0.70;;;;;;;14.22;100.00;98825.06;4470089;32;20507;-75
2023/10/23 06:48:34;;;;;;;5.60;0.90;;;;;;;14.49;100.00;98813.47;4469808;32;20093;-75
2023/10/23 06:51:03;;;;;;;2.65;1.40;;;;;;;14.48;100.00;98811.81;4469988;32;20119;-75
2023/10/23 06:53:31;;;;;;;4.78;2.00;;;;;;;14.52;100.00;98818.41;4469774;32;20482;-75
2023/10/23 06:55:59;;;;;;;5.97;2.22;;;;;;;14.44;100.00;98818.38;4470055;32;20123;-75
2023/10/23 06:58:27;;;;;;;8.15;4.10;;;;;;;14.61;100.00;98814.00;4469805;32;20108;-76
2023/10/23 07:00:54;;;;;;;6.40;2.60;;;;;;;14.87;100.00;98820.97;4470032;32;20678;-75
2023/10/23 07:03:22;;;;;;;6.40;2.10;;;;;;;15.20;100.00;98815.69;4469806;32;20092;-76
2023/10/23 07:05:50;;;;;;;6.05;2.47;;;;;;;15.43;100.00;98827.22;4470072;32;20115;-75
2023/10/23 07:08:19;;;;;;;5.25;2.62;;;;;;;15.72;100.00;98835.59;4469741;32;20387;-75
2023/10/23 07:10:47;;;;;;;5.03;2.75;;;;;;;15.91;100.00;98834.41;4469787;32;20156;-75
2023/10/23 07:13:15;;;;;;;6.28;3.00;;;;;;;15.91;100.00;98834.41;4469526;32;20116;-75
2023/10/23 07:15:50;;;;;;;7.35;3.35;;;;;;;15.99;100.00;98836.22;4472711;32;20867;-75
2023/10/23 07:18:18;;;;;;;5.10;3.00;;;;;;;15.95;100.00;98833.09;4485877;31;20092;-75
2023/10/23 07:20:56;;;;;;;7.12;3.20;;;;;;;15.96;100.00;98832.09;4485521;31;20446;-75
2023/10/23 07:23:25;;;;;;;8.23;3.42;;;;;;;15.83;100.00;98837.09;4485397;31;20141;-75
2023/10/23 07:26:16;;;;;;;11.38;3.53;;;;;;;15.71;100.00;98834.75;4485576;31;20076;-75
2023/10/23 07:28:46;;;;;;;5.43;3.28;;;;;;;15.67;100.00;98840.56;4474245;31;20123;-75
2023/10/23 07:31:13;;;;;;;8.43;3.85;;;;;;;15.66;100.00;98842.37;4469882;32;20097;-75
2023/10/23 07:33:41;;;;;;;5.07;3.00;;;;;;;15.63;100.00;98841.91;4468547;32;20092;-75
2023/10/23 07:36:10;;;;;;;5.40;3.40;;;;;;;15.48;100.00;98839.94;4469928;32;20092;-75
2023/10/23 07:38:42;;;;;;;5.35;3.72;;;;;;;15.29;100.00;98842.91;4469443;32;20226;-75
2023/10/23 07:41:11;;;;;;;4.95;3.97;;;;;;;15.15;100.00;98849.69;4470038;32;20088;-75
2023/10/23 07:43:39;;;;;;;5.53;3.78;;;;;;;15.02;100.00;98844.91;4469554;32;20111;-75
2023/10/23 07:46:11;;;;;;;7.53;4.78;;;;;;;14.91;100.00;98853.94;4469588;32;20174;-75
2023/10/23 07:48:41;;;;;;;8.02;4.65;;;;;;;14.93;100.00;98857.25;4469410;32;20097;-75
2023/10/23 07:51:09;;;;;;;6.43;4.75;;;;;;;15.12;100.00;98858.72;4469577;32;20092;-75
2023/10/23 07:53:37;;;;;;;8.80;4.85;;;;;;;15.11;100.00;98861.53;4469392;32;20114;-75
2023/10/23 07:56:05;;;;;;;8.30;4.97;;;;;;;15.18;100.00;98857.25;4469613;32;20141;-75
2023/10/23 07:58:34;;;;;;;8.30;5.32;;;;;;;15.20;100.00;98857.91;4469326;32;20097;-75
2023/10/23 08:01:09;;;;;;;8.15;5.55;;;;;;;15.26;100.00;98866.00;4469583;32;20135;-75
2023/10/23 08:03:37;;;;;;;6.30;4.70;;;;;;;15.25;100.00;98851.16;4469324;32;20425;-75
2023/10/23 08:06:07;;;;;;;8.20;5.45;;;;;;;15.33;100.00;98847.69;4469385;32;20160;-76
2023/10/23 08:08:39;;;;;;;5.45;3.62;;;;;;;15.32;100.00;98840.78;4469351;32;20480;-75
2023/10/23 08:11:09;;;;;;;7.47;4.70;;;;;;;15.47;100.00;98848.81;4469587;32;20157;-75
2023/10/23 08:13:37;;;;;;;9.68;4.97;;;;;;;15.81;100.00;98845.19;4469223;32;20421;-75
2023/10/23 08:16:06;;;;;;;9.27;5.65;;;;;;;15.74;100.00;98837.06;4474245;32;20118;-75
2023/10/23 08:18:34;;;;;;;6.68;5.00;;;;;;;15.84;100.00;98833.47;4485230;31;20089;-75
2023/10/23 08:21:14;;;;;;;8.70;5.07;;;;;;;15.79;100.00;98836.59;4485036;31;20132;-75
2023/10/23 08:23:56;;;;;;;7.80;4.37;;;;;;;15.94;100.00;98842.84;4485042;31;20089;-75
2023/10/23 08:26:24;;;;;;;8.30;5.47;;;;;;;15.93;100.00;98840.38;4485177;31;20072;-75
2023/10/23 08:28:53;;;;;;;9.25;4.60;;;;;;;16.14;100.00;98845.91;4473045;32;20486;-75
2023/10/23 08:31:29;;;;;;;11.02;5.10;;;;;;;16.20;100.00;98839.12;4469425;32;20494;-75
2023/10/23 08:33:59;;;;;;;6.20;4.35;;;;;;;16.24;100.00;98845.69;4468984;32;20077;-74
2023/10/23 08:36:27;;;;;;;4.85;3.30;;;;;;;16.27;100.00;98847.19;4469575;32;20080;-75
2023/10/23 08:38:55;;;;;;;6.12;3.37;;;;;;;16.24;100.00;98844.88;4469224;32;20160;-75
2023/10/23 08:41:22;;;;;;;5.68;3.87;;;;;;;16.53;100.00;98846.88;4469082;32;20570;-75
2023/10/23 08:43:49;;;;;;;8.82;4.00;;;;;;;16.96;100.00;98843.84;4468968;32;20105;-75
2023/10/23 08:46:18;;;;;;;6.15;3.55;;;;;;;16.89;99.64;98837.63;4469110;32;20101;-75
2023/10/23 08:48:46;;;;;;;7.78;4.05;;;;;;;16.81;97.26;98838.47;4469486;32;20119;-75
2023/10/23 08:51:14;;;;;;;4.82;3.47;;;;;;;16.94;99.72;98828.16;4469194;32;20096;-75
2023/10/23 08:54:17;;;;;;;5.35;3.85;;;;;;;17.00;99.06;98837.19;4468941;32;20526;-75
2023/10/23 08:56:53;;;;;;;6.50;4.18;;;;;;;16.94;98.01;98840.53;4462725;32;20111;-75
2023/10/23 08:59:20;;;;;;;6.68;3.90;;;;;;;17.22;99.16;98842.66;4469095;32;20158;-76
2023/10/23 09:01:48;;;;;;;9.38;4.40;;;;;;;17.33;98.00;98840.41;4469414;32;20115;-76
2023/10/23 09:04:15;;;;;;;7.35;4.12;;;;;;;17.24;97.37;98843.31;4468054;32;20141;-75
2023/10/23 09:06:43;;;;;;;6.97;4.57;;;;;;;17.27;98.77;98851.69;4469183;32;20154;-75
2023/10/23 09:09:11;;;;;;;6.78;4.90;;;;;;;17.32;100.00;98845.88;4468911;32;20247;-76
2023/10/23 09:11:43;;;;;;;7.60;4.60;;;;;;;17.64;100.00;98843.91;4468997;32;20096;-75
2023/10/23 09:14:27;;;;;;;6.28;3.80;;;;;;;17.54;95.64;98845.00;4469070;32;20450;-75
2023/10/23 09:16:56;;;;;;;5.53;3.58;;;;;;;17.73;97.74;98845.50;4479043;32;20080;-75
2023/10/23 09:19:36;;;;;;;6.78;3.40;;;;;;;17.58;95.97;98845.50;4484552;31;20147;-76
2023/10/23 09:22:06;;;;;;;4.43;2.78;;;;;;;17.58;93.85;98842.00;4484681;31;20409;-76
2023/10/23 09:24:36;;;;;;;6.95;3.28;;;;;;;17.62;91.99;98844.09;4484645;31;20107;-76
2023/10/23 09:27:05;;;;;;;6.87;3.25;;;;;;;17.39;91.41;98844.16;4484407;31;20076;-76
2023/10/23 09:29:34;;;;;;;6.20;3.47;;;;;;;17.62;95.39;98845.94;4468990;32;20104;-75
2023/10/23 09:32:04;;;;;;;3.92;2.62;;;;;;;17.69;94.61;98845.03;4468743;32;20100;-75
2023/10/23 09:34:33;;;;;;;6.40;2.92;;;;;;;17.84;92.62;98847.69;4468657;32;20088;-76
2023/10/23 09:37:01;;;;;;;5.22;3.20;;;;;;;17.77;91.95;98840.66;4468561;32;20109;-76
2023/10/23 09:39:28;;;;;;;3.83;2.30;;;;;;;17.79;92.00;98839.47;4468634;32;20485;-76
2023/10/23 09:41:56;;;;;;;7.28;2.60;;;;;;;17.66;91.16;98844.59;4468625;32;20159;-76
2023/10/23 09:44:26;;;;;;;4.65;2.60;;;;;;;17.83;92.66;98845.22;4468632;32;20139;-75
2023/10/23 09:46:53;;;;;;;6.32;3.22;;;;;;;18.04;90.01;98847.19;4468657;32;20096;-75
2023/10/23 09:49:22;;;;;;;4.20;2.12;;;;;;;17.93;91.07;98850.31;4467306;32;20100;-75
2023/10/23 09:51:51;;;;;;;7.12;2.47;;;;;;;17.88;94.13;98854.28;4467304;32;20478;-75
2023/10/23 09:54:21;;;;;;;3.97;2.22;;;;;;;18.13;92.55;98854.03;4467153;32;20429;-75
2023/10/23 09:56:51;;;;;;;5.90;2.55;;;;;;;17.90;94.38;98846.19;4466226;32;20179;-75
2023/10/23 09:59:27;;;;;;;3.92;2.20;;;;;;;17.77;93.74;98851.25;4468631;32;20382;-75
2023/10/23 10:01:57;;;;;;;4.03;1.87;;;;;;;18.19;94.30;98853.28;4467433;32;20096;-75
2023/10/23 10:04:31;;;;;;;2.50;1.90;;;;;;;18.26;93.74;98840.94;4468924;32;20084;-75
2023/10/23 10:07:14;;;;;;;2.90;2.12;;;;;;;18.56;92.40;98832.94;4468485;32;20394;-75
2023/10/23 10:09:42;;;;;;;4.77;2.70;;;;;;;18.22;91.22;98829.06;4467042;32;20097;-75
2023/10/23 10:12:10;;;;;;;3.70;2.33;;;;;;;17.93;93.05;98829.09;4468387;32;20191;-75
2023/10/23 10:14:37;;;;;;;4.90;2.20;;;;;;;18.00;91.48;98844.09;4467090;32;20088;-75
2023/10/23 10:17:04;;;;;;;24.63;13.55;;;;;;;18.11;93.10;98842.81;4479260;32;20112;-75
2023/10/23 10:19:33;;;;;;;6.97;2.20;;;;;;;18.17;94.48;98842.06;4482759;32;20177;-76
2023/10/23 10:22:09;;;;;;;5.40;2.08;;;;;;;18.41;92.01;98830.31;4483709;31;20100;-75
2023/10/23 10:24:37;;;;;;;3.87;2.22;;;;;;;18.48;90.30;98833.03;4483006;32;20110;-75
2023/10/23 10:27:05;;;;;;;3.70;1.85;;;;;;;18.55;89.33;98823.34;4482318;32;20672;-75
2023/10/23 10:29:32;;;;;;;1.85;1.35;;;;;;;18.37;95.25;98829.03;4466840;32;20575;-75
2023/10/23 10:32:06;;;;;;;3.30;1.52;;;;;;;18.36;92.45;98823.94;4468178;32;20088;-75
2023/10/23 10:34:45;;;;;;;2.20;1.20;;;;;;;18.53;88.34;98820.06;4467741;32;20081;-75
2023/10/23 10:37:13;;;;;;;2.85;1.90;;;;;;;18.45;89.04;98820.16;4468042;32;20470;-75
2023/10/23 10:39:46;;;;;;;2.40;1.40;;;;;;;18.53;91.39;98808.59;4468071;32;20154;-76
2023/10/23 10:42:22;;;;;;;2.22;1.20;;;;;;;18.92;89.95;98815.34;4468156;32;20111;-75
2023/10/23 10:44:53;;;;;;;1.95;1.20;;;;;;;18.53;90.09;98812.09;4467813;32;20156;-75
2023/10/23 10:47:41;;;;;;;4.55;1.52;;;;;;;18.77;89.96;98812.72;4467909;32;20093;-75
2023/10/23 10:50:10;;;;;;;1.15;1.05;;;;;;;18.94;88.08;98811.50;4418769;32;20578;-76
2023/10/23 10:52:43;;;;;;;3.47;1.37;;;;;;;18.72;93.00;98812.50;4418763;32;20133;-75
2023/10/23 10:55:12;;;;;;;2.00;1.30;;;;;;;18.34;92.07;98810.03;4418822;32;20620;-75
2023/10/23 10:57:43;;;;;;;2.58;1.60;;;;;;;18.74;92.58;98813.09;4418995;32;20609;-75
2023/10/23 11:00:11;;;;;;;3.28;1.67;;;;;;;18.75;95.30;98818.22;4418734;32;20197;-75
2023/10/23 11:02:40;;;;;;;8.52;1.98;;;;;;;18.52;96.01;98814.94;4418730;32;20203;-75
2023/10/23 11:05:11;;;;;;;2.30;1.37;;;;;;;18.49;95.46;98810.81;4418853;32;20136;-75
2023/10/23 11:07:39;;;;;;;3.37;2.30;;;;;;;18.72;96.13;98807.19;4419755;32;20433;-75
2023/10/23 11:10:10;;;;;;;6.55;2.00;;;;;;;18.83;95.96;98808.50;4420945;32;20548;-75
2023/10/23 11:12:38;;;;;;;3.67;2.05;;;;;;;19.10;93.80;98815.72;4420933;32;20105;-75
2023/10/23 11:15:09;;;;;;;2.08;1.67;;;;;;;19.46;92.53;98809.47;4420906;32;20126;-76
2023/10/23 11:17:37;;;;;;;2.83;1.62;;;;;;;19.64;91.92;98803.66;4434996;32;20665;-76
2023/10/23 11:20:07;;;;;;;2.47;1.90;;;;;;;19.25;94.12;98807.69;4436213;32;20127;-76
2023/10/23 11:22:37;;;;;;;2.95;1.50;;;;;;;18.97;96.68;98799.69;4436304;32;20105;-75
2023/10/23 11:25:08;;;;;;;2.75;1.50;;;;;;;19.45;96.50;98796.37;4436085;32;20558;-75
2023/10/23 11:27:40;;;;;;;2.95;1.70;;;;;;;19.53;93.02;98796.25;4462052;32;20244;-76
2023/10/23 11:30:08;;;;;;;1.33;1.15;;;;;;;19.59;91.20;98787.50;4469757;32;20112;-75
2023/10/23 11:32:37;;;;;;;4.45;1.20;;;;;;;19.81;92.94;98782.94;4469667;32;20141;-75
2023/10/23 11:35:05;;;;;;;3.42;1.15;;;;;;;19.89;94.81;98776.63;4469694;32;20115;-75